createdAt,value
2019-04-28T00:00:42.370Z,99.99
2019-04-28T00:01:08.733Z,99.99
2019-04-28T00:02:02.481Z,99.99
2019-04-28T00:02:28.615Z,99.99
2019-04-28T00:03:21.920Z,99.99
2019-04-28T00:03:48.056Z,99.99
2019-04-28T00:04:41.505Z,99.99
2019-04-28T00:06:01.121Z,99.99
2019-04-28T00:07:19.273Z,99.99
2019-04-28T00:08:42.842Z,99.99
2019-04-28T00:09:08.752Z,99.99
2019-04-28T00:10:02.441Z,99.99
2019-04-28T00:10:28.580Z,99.99
2019-04-28T00:11:22.234Z,99.99
2019-04-28T00:11:48.365Z,99.99
2019-04-28T00:12:42.629Z,99.99
2019-04-28T00:13:08.765Z,99.99
2019-04-28T00:14:31.673Z,99.99
2019-04-28T00:15:51.852Z,99.99
2019-04-28T00:16:17.977Z,99.99
2019-04-28T00:17:11.574Z,99.99
2019-04-28T00:17:37.716Z,99.99
2019-04-28T00:18:31.650Z,99.99
2019-04-28T00:19:51.453Z,99.99
2019-04-28T00:20:18.001Z,99.99
2019-04-28T00:21:11.404Z,99.99
2019-04-28T00:22:31.409Z,99.99
2019-04-28T00:23:52.712Z,99.99
2019-04-28T00:24:18.839Z,99.99
2019-04-28T00:25:41.042Z,99.99
2019-04-28T00:26:32.889Z,99.99
2019-04-28T00:26:59.026Z,99.99
2019-04-28T00:27:52.547Z,99.99
2019-04-28T00:28:18.682Z,99.99
2019-04-28T00:29:12.238Z,99.99
2019-04-28T00:29:41.780Z,99.99
2019-04-28T00:30:32.691Z,99.99
2019-04-28T00:30:58.859Z,99.99
2019-04-28T00:31:52.594Z,99.99
2019-04-28T00:32:20.740Z,99.99
2019-04-28T00:32:45.851Z,99.99
2019-04-28T00:33:11.991Z,99.99
2019-04-28T00:34:04.542Z,99.99
2019-04-28T00:34:56.825Z,99.99
2019-04-28T00:35:23.369Z,99.99
2019-04-28T00:36:16.633Z,99.99
2019-04-28T00:36:43.090Z,99.99
2019-04-28T00:37:35.406Z,99.99
2019-04-28T00:38:54.823Z,99.99
2019-04-28T00:40:13.267Z,99.99
2019-04-28T00:41:05.565Z,99.99
2019-04-28T00:41:31.730Z,99.99
2019-04-28T00:42:24.085Z,99.99
2019-04-28T00:43:16.392Z,99.99
2019-04-28T00:43:42.526Z,99.99
2019-04-28T00:44:34.809Z,99.99
2019-04-28T00:45:53.251Z,99.99
2019-04-28T00:46:45.566Z,99.99
2019-04-28T00:48:03.981Z,99.99
2019-04-28T00:48:56.260Z,99.99
2019-04-28T00:49:23.300Z,99.99
2019-04-28T00:50:15.595Z,99.99
2019-04-28T00:50:43.757Z,99.99
2019-04-28T00:51:35.038Z,99.99
2019-04-28T00:52:53.711Z,99.99
2019-04-28T00:53:45.989Z,99.99
2019-04-28T00:54:12.339Z,99.99
2019-04-28T00:55:04.465Z,99.99
2019-04-28T00:55:56.772Z,99.99
2019-04-28T00:56:23.131Z,99.99
2019-04-28T00:57:15.412Z,99.99
2019-04-28T00:58:33.889Z,99.99
2019-04-28T00:59:26.232Z,99.99
2019-04-28T00:59:57.908Z,99.99
2019-04-28T01:00:46.633Z,99.99
2019-04-28T01:01:12.764Z,99.99
2019-04-28T01:02:05.046Z,99.99
2019-04-28T01:03:23.896Z,99.99
2019-04-28T01:04:15.758Z,99.99
2019-04-28T01:04:41.922Z,99.99
2019-04-28T01:05:34.203Z,99.99
2019-04-28T01:06:26.488Z,99.99
2019-04-28T01:06:53.529Z,99.99
2019-04-28T01:07:45.809Z,99.99
2019-04-28T01:08:11.937Z,99.99
2019-04-28T01:09:04.222Z,99.99
2019-04-28T01:09:56.497Z,99.99
2019-04-28T01:10:22.631Z,99.99
2019-04-28T01:11:14.926Z,99.99
2019-04-28T01:12:33.349Z,99.99
2019-04-28T01:13:26.615Z,99.99
2019-04-28T01:13:52.910Z,99.99
2019-04-28T01:14:45.201Z,99.99
2019-04-28T01:15:13.321Z,99.99
2019-04-28T01:16:05.653Z,99.99
2019-04-28T01:16:31.790Z,99.99
2019-04-28T01:17:24.079Z,99.99
2019-04-28T01:18:16.362Z,99.99
2019-04-28T01:18:42.496Z,99.99
2019-04-28T01:19:34.783Z,99.99
2019-04-28T01:20:53.198Z,99.99
2019-04-28T01:21:45.486Z,99.99
2019-04-28T01:23:03.918Z,99.99
2019-04-28T01:23:56.211Z,99.99
2019-04-28T01:24:22.341Z,99.99
2019-04-28T01:25:14.625Z,99.99
2019-04-28T01:26:06.925Z,99.99
2019-04-28T01:26:33.062Z,99.99
2019-04-28T01:27:25.342Z,99.99
2019-04-28T01:28:43.790Z,99.99
2019-04-28T01:29:36.077Z,99.99
2019-04-28T01:30:09.059Z,99.99
2019-04-28T01:30:56.477Z,99.99
2019-04-28T01:31:22.607Z,99.99
2019-04-28T01:32:14.896Z,99.99
2019-04-28T01:33:33.311Z,99.99
2019-04-28T01:34:25.598Z,99.99
2019-04-28T01:34:51.749Z,99.99
2019-04-28T01:35:44.061Z,99.99
2019-04-28T01:36:36.349Z,99.99
2019-04-28T01:37:02.505Z,99.99
2019-04-28T01:37:54.805Z,99.99
2019-04-28T01:39:13.225Z,99.99
2019-04-28T01:40:05.548Z,99.99
2019-04-28T01:41:23.999Z,99.99
2019-04-28T01:42:16.281Z,99.99
2019-04-28T01:42:42.415Z,99.99
2019-04-28T01:43:34.719Z,99.99
2019-04-28T01:44:53.142Z,99.99
2019-04-28T01:45:45.433Z,99.99
2019-04-28T01:47:03.879Z,99.99
2019-04-28T01:47:56.185Z,99.99
2019-04-28T01:48:22.321Z,99.99
2019-04-28T01:49:14.596Z,99.99
2019-04-28T01:50:06.936Z,99.99
2019-04-28T01:50:33.065Z,99.99
2019-04-28T01:51:25.358Z,99.99
2019-04-28T01:52:43.774Z,99.99
2019-04-28T01:53:36.056Z,99.99
2019-04-28T01:54:02.190Z,99.99
2019-04-28T01:54:54.468Z,99.99
2019-04-28T01:55:46.756Z,99.99
2019-04-28T01:56:12.894Z,99.99
2019-04-28T01:57:05.176Z,99.99
2019-04-28T01:58:24.364Z,99.99
2019-04-28T01:59:16.667Z,99.99
2019-04-28T01:59:42.820Z,99.99
2019-04-28T02:00:36.159Z,99.99
2019-04-28T02:01:02.291Z,99.99
2019-04-28T02:01:54.578Z,99.99
2019-04-28T02:02:46.864Z,99.99
2019-04-28T02:03:12.999Z,99.99
2019-04-28T02:04:05.300Z,99.99
2019-04-28T02:05:23.758Z,99.99
2019-04-28T02:06:16.059Z,99.99
2019-04-28T02:06:42.194Z,99.99
2019-04-28T02:07:34.490Z,99.99
2019-04-28T02:08:26.821Z,99.99
2019-04-28T02:08:52.985Z,99.99
2019-04-28T02:09:45.318Z,99.99
2019-04-28T02:11:03.754Z,99.99
2019-04-28T02:11:56.042Z,99.99
2019-04-28T02:12:22.174Z,99.99
2019-04-28T02:13:14.451Z,99.99
2019-04-28T02:14:06.784Z,99.99
2019-04-28T02:14:32.920Z,99.99
2019-04-28T02:15:25.204Z,99.99
2019-04-28T02:16:43.651Z,99.99
2019-04-28T02:17:36.230Z,99.99
2019-04-28T02:18:02.367Z,99.99
2019-04-28T02:18:54.671Z,99.99
2019-04-28T02:20:13.133Z,99.99
2019-04-28T02:21:05.427Z,99.99
2019-04-28T02:22:23.834Z,99.99
2019-04-28T02:23:16.142Z,99.99
2019-04-28T02:23:42.307Z,99.99
2019-04-28T02:24:34.597Z,99.99
2019-04-28T02:25:26.877Z,99.99
2019-04-28T02:25:53.012Z,99.99
2019-04-28T02:26:45.301Z,99.99
2019-04-28T02:28:03.744Z,99.99
2019-04-28T02:28:56.022Z,99.99
2019-04-28T02:29:22.156Z,99.99
2019-04-28T02:30:14.454Z,99.99
2019-04-28T02:30:49.120Z,99.99
2019-04-28T02:31:35.796Z,99.99
2019-04-28T02:32:02.533Z,99.99
2019-04-28T02:32:55.843Z,99.99
2019-04-28T02:33:21.981Z,99.99
2019-04-28T02:34:14.837Z,99.99
2019-04-28T02:35:34.053Z,99.99
2019-04-28T02:36:25.716Z,99.99
2019-04-28T02:36:53.738Z,99.99
2019-04-28T02:37:45.171Z,99.99
2019-04-28T02:39:04.602Z,99.99
2019-04-28T02:39:56.918Z,99.99
2019-04-28T02:40:23.123Z,99.99
2019-04-28T02:41:15.437Z,99.99
2019-04-28T02:42:33.947Z,99.99
2019-04-28T02:43:26.273Z,99.99
2019-04-28T02:43:52.408Z,99.99
2019-04-28T02:44:44.755Z,99.99
2019-04-28T02:46:03.926Z,99.99
2019-04-28T02:46:56.248Z,99.99
2019-04-28T02:47:22.416Z,99.99
2019-04-28T02:48:15.722Z,99.99
2019-04-28T02:48:41.933Z,99.99
2019-04-28T02:49:35.330Z,99.99
2019-04-28T02:50:54.120Z,99.99
2019-04-28T02:51:46.429Z,99.99
2019-04-28T02:52:13.582Z,99.99
2019-04-28T02:53:05.860Z,99.99
2019-04-28T02:53:33.551Z,99.99
2019-04-28T02:54:25.295Z,99.99
2019-04-28T02:55:44.819Z,99.99
2019-04-28T02:57:04.285Z,99.99
2019-04-28T02:57:56.616Z,99.99
2019-04-28T02:58:23.785Z,99.99
2019-04-28T02:59:16.080Z,99.99
2019-04-28T02:59:44.601Z,99.99
2019-04-28T03:00:35.510Z,99.99
2019-04-28T03:01:12.722Z,99.99
2019-04-28T03:01:32.254Z,99.99
2019-04-28T03:02:24.529Z,99.99
2019-04-28T03:03:16.857Z,99.99
2019-04-28T03:03:43.047Z,99.99
2019-04-28T03:04:35.375Z,99.99
2019-04-28T03:05:54.479Z,99.99
2019-04-28T03:06:46.794Z,99.99
2019-04-28T03:07:14.545Z,99.99
2019-04-28T03:08:06.260Z,99.99
2019-04-28T03:08:32.451Z,99.99
2019-04-28T03:09:24.767Z,99.99
2019-04-28T03:10:43.215Z,99.99
2019-04-28T03:11:35.502Z,99.99
2019-04-28T03:12:54.024Z,99.99
2019-04-28T03:13:46.403Z,99.99
2019-04-28T03:14:12.525Z,99.99
2019-04-28T03:15:04.825Z,99.99
2019-04-28T03:16:23.327Z,99.99
2019-04-28T03:17:15.620Z,99.99
2019-04-28T03:17:41.754Z,99.99
2019-04-28T03:18:35.031Z,99.99
2019-04-28T03:19:54.447Z,99.74
2019-04-28T03:20:46.756Z,99.74
2019-04-28T03:21:13.895Z,99.99
2019-04-28T03:22:06.177Z,99.65
2019-04-28T03:22:33.646Z,99.65
2019-04-28T03:23:26.606Z,99.99
2019-04-28T03:23:52.771Z,99.93
2019-04-28T03:24:45.088Z,99.99
2019-04-28T03:26:04.585Z,99.99
2019-04-28T03:26:56.916Z,99.99
2019-04-28T03:27:24.040Z,99.6
2019-04-28T03:28:16.352Z,99.41
2019-04-28T03:28:43.480Z,99.41
2019-04-28T03:29:35.801Z,99.22
2019-04-28T03:30:01.958Z,99.36
2019-04-28T03:30:55.082Z,99.36
2019-04-28T03:31:50.576Z,99.27
2019-04-28T03:32:15.403Z,99.99
2019-04-28T03:33:18.693Z,99.74
2019-04-28T03:33:48.834Z,99.74
2019-04-28T03:34:13.062Z,99.99
2019-04-28T03:35:06.687Z,99.74
2019-04-28T03:35:33.771Z,99.99
2019-04-28T03:36:54.373Z,99.84
2019-04-28T03:37:46.672Z,99.93
2019-04-28T03:38:12.806Z,99.93
2019-04-28T03:39:05.134Z,99.08
2019-04-28T03:40:23.587Z,99.99
2019-04-28T03:41:15.883Z,99.99
2019-04-28T03:41:42.052Z,99.99
2019-04-28T03:42:34.326Z,99.99
2019-04-28T03:43:54.717Z,99.99
2019-04-28T03:45:13.208Z,99.99
2019-04-28T03:46:05.525Z,99.99
2019-04-28T03:46:31.739Z,99.99
2019-04-28T03:47:24.061Z,99.99
2019-04-28T03:48:16.379Z,99.99
2019-04-28T03:48:43.502Z,99.99
2019-04-28T03:49:35.788Z,99.99
2019-04-28T03:50:01.943Z,99.99
2019-04-28T03:50:54.260Z,99.99
2019-04-28T03:51:46.599Z,99.99
2019-04-28T03:52:12.769Z,99.99
2019-04-28T03:53:05.126Z,99.99
2019-04-28T03:54:24.119Z,99.99
2019-04-28T03:55:16.416Z,99.99
2019-04-28T03:55:43.559Z,99.99
2019-04-28T03:56:35.898Z,99.99
2019-04-28T03:57:02.052Z,99.99
2019-04-28T03:57:54.346Z,99.99
2019-04-28T03:58:46.633Z,99.99
2019-04-28T03:59:12.821Z,99.99
2019-04-28T04:00:05.103Z,99.99
2019-04-28T04:01:24.238Z,99.99
2019-04-28T04:02:45.329Z,99.99
2019-04-28T04:04:03.841Z,99.99
2019-04-28T04:04:56.082Z,99.99
2019-04-28T04:05:22.244Z,99.99
2019-04-28T04:06:14.533Z,99.99
2019-04-28T04:07:06.918Z,99.99
2019-04-28T04:07:33.110Z,99.99
2019-04-28T04:08:25.459Z,99.99
2019-04-28T04:09:44.867Z,99.99
2019-04-28T04:11:03.342Z,99.99
2019-04-28T04:11:55.622Z,99.99
2019-04-28T04:12:21.775Z,99.99
2019-04-28T04:13:14.094Z,99.99
2019-04-28T04:14:06.422Z,99.99
2019-04-28T04:14:32.562Z,99.99
2019-04-28T04:15:25.115Z,99.99
2019-04-28T04:15:53.964Z,99.99
2019-04-28T04:16:45.507Z,99.99
2019-04-28T04:18:04.937Z,99.99
2019-04-28T04:19:24.397Z,99.99
2019-04-28T04:20:16.786Z,99.99
2019-04-28T04:20:43.908Z,99.99
2019-04-28T04:21:36.215Z,99.99
2019-04-28T04:22:03.280Z,99.99
2019-04-28T04:22:55.595Z,99.99
2019-04-28T04:23:23.196Z,99.99
2019-04-28T04:24:14.118Z,99.99
2019-04-28T04:25:08.897Z,99.99
2019-04-28T04:25:33.823Z,99.99
2019-04-28T04:26:26.152Z,99.99
2019-04-28T04:26:52.335Z,99.99
2019-04-28T04:27:44.688Z,99.99
2019-04-28T04:29:03.184Z,99.99
2019-04-28T04:29:55.507Z,99.99
2019-04-28T04:31:14.005Z,99.93
2019-04-28T04:32:34.479Z,99.99
2019-04-28T04:33:26.800Z,99.99
2019-04-28T04:33:52.967Z,99.99
2019-04-28T04:34:45.443Z,99.99
2019-04-28T04:36:04.657Z,99.99
2019-04-28T04:37:23.158Z,99.74
2019-04-28T04:38:15.472Z,99.99
2019-04-28T04:38:45.772Z,99.84
2019-04-28T04:39:35.931Z,99.84
2019-04-28T04:40:02.103Z,99.99
2019-04-28T04:40:54.431Z,99.99
2019-04-28T04:41:46.741Z,99.99
2019-04-28T04:42:12.909Z,99.99
2019-04-28T04:43:05.251Z,99.99
2019-04-28T04:44:23.736Z,99.99
2019-04-28T04:45:43.203Z,99.99
2019-04-28T04:46:35.645Z,99.99
2019-04-28T04:47:01.775Z,99.84
2019-04-28T04:47:54.084Z,99.99
2019-04-28T04:48:46.367Z,99.99
2019-04-28T04:49:12.509Z,99.99
2019-04-28T04:50:04.786Z,99.99
2019-04-28T04:51:23.217Z,99.99
2019-04-28T04:52:15.514Z,99.99
2019-04-28T04:53:34.275Z,99.99
2019-04-28T04:54:26.590Z,99.99
2019-04-28T04:54:52.781Z,99.99
2019-04-28T04:55:45.122Z,99.99
2019-04-28T04:57:03.542Z,99.99
2019-04-28T04:57:55.862Z,99.99
2019-04-28T04:58:22.018Z,99.99
2019-04-28T04:59:14.338Z,99.89
2019-04-28T05:00:06.647Z,99.36
2019-04-28T05:00:32.816Z,99.74
2019-04-28T05:01:25.149Z,99.99
2019-04-28T05:02:51.544Z,99.99
2019-04-28T05:03:13.725Z,99.22
2019-04-28T05:04:06.010Z,99.51
2019-04-28T05:04:32.149Z,99.22
2019-04-28T05:05:24.439Z,99.32
2019-04-28T05:06:16.722Z,99.32
2019-04-28T05:06:42.856Z,98.84
2019-04-28T05:07:35.136Z,99.22
2019-04-28T05:08:54.576Z,99.22
2019-04-28T05:09:46.913Z,99.13
2019-04-28T05:10:13.079Z,99.22
2019-04-28T05:11:05.403Z,99.32
2019-04-28T05:12:23.820Z,99.84
2019-04-28T05:13:16.104Z,99.89
2019-04-28T05:13:42.246Z,99.98
2019-04-28T05:14:34.530Z,99.99
2019-04-28T05:15:26.842Z,99.93
2019-04-28T05:15:52.977Z,99.93
2019-04-28T05:16:45.265Z,99.99
2019-04-28T05:18:03.678Z,99.99
2019-04-28T05:18:55.961Z,99.99
2019-04-28T05:19:22.095Z,99.99
2019-04-28T05:20:14.377Z,99.99
2019-04-28T05:21:06.649Z,99.99
2019-04-28T05:21:33.525Z,99.99
2019-04-28T05:22:25.857Z,99.99
2019-04-28T05:22:51.987Z,99.99
2019-04-28T05:23:44.270Z,99.55
2019-04-28T05:25:05.562Z,99.99
2019-04-28T05:25:32.713Z,99.99
2019-04-28T05:26:25.959Z,99.99
2019-04-28T05:26:53.084Z,99.74
2019-04-28T05:27:46.760Z,99.79
2019-04-28T05:28:13.891Z,99.89
2019-04-28T05:29:36.197Z,99.74
2019-04-28T05:30:05.040Z,99.93
2019-04-28T05:30:56.689Z,99.99
2019-04-28T05:31:24.380Z,99.99
2019-04-28T05:32:49.462Z,99.93
2019-04-28T05:33:13.004Z,99.99
2019-04-28T05:34:08.037Z,99.89
2019-04-28T05:34:33.431Z,99.99
2019-04-28T05:35:59.122Z,99.41
2019-04-28T05:36:23.922Z,99.22
2019-04-28T05:37:43.338Z,98.36
2019-04-28T05:38:35.615Z,99.13
2019-04-28T05:39:01.753Z,98.74
2019-04-28T05:39:54.039Z,99.03
2019-04-28T05:40:46.321Z,98.84
2019-04-28T05:41:13.302Z,99.46
2019-04-28T05:42:05.591Z,99.99
2019-04-28T05:42:31.727Z,99.22
2019-04-28T05:43:24.030Z,98.94
2019-04-28T05:44:16.321Z,98.84
2019-04-28T05:44:42.692Z,98.84
2019-04-28T05:45:34.975Z,98.08
2019-04-28T05:46:53.392Z,97.13
2019-04-28T05:47:45.700Z,96.94
2019-04-28T05:48:12.817Z,97.7
2019-04-28T05:49:05.135Z,97.6
2019-04-28T05:50:23.585Z,97.31
2019-04-28T05:51:15.868Z,97.75
2019-04-28T05:51:42.005Z,97.22
2019-04-28T05:52:34.282Z,97.7
2019-04-28T05:53:26.585Z,97.51
2019-04-28T05:53:53.843Z,97.89
2019-04-28T05:54:46.022Z,97.31
2019-04-28T05:55:12.189Z,97.75
2019-04-28T05:56:04.475Z,96.84
2019-04-28T05:56:56.763Z,96.08
2019-04-28T05:57:22.922Z,96.46
2019-04-28T05:58:15.201Z,96.17
2019-04-28T05:59:33.677Z,96.7
2019-04-28T06:00:25.981Z,95.94
2019-04-28T06:00:52.112Z,96.22
2019-04-28T06:01:44.435Z,95.56
2019-04-28T06:02:36.723Z,94.51
2019-04-28T06:03:04.869Z,94.6
2019-04-28T06:04:23.280Z,95.41
2019-04-28T06:05:15.617Z,95.75
2019-04-28T06:05:41.757Z,95.51
2019-04-28T06:06:34.042Z,96.12
2019-04-28T06:07:26.324Z,95.75
2019-04-28T06:07:52.463Z,95.65
2019-04-28T06:08:44.822Z,95.75
2019-04-28T06:10:03.248Z,94.51
2019-04-28T06:10:55.523Z,94.6
2019-04-28T06:12:14.977Z,95.17
2019-04-28T06:13:33.394Z,95.27
2019-04-28T06:14:25.683Z,94.51
2019-04-28T06:14:51.813Z,94.7
2019-04-28T06:15:44.132Z,94.13
2019-04-28T06:16:36.481Z,94.51
2019-04-28T06:17:04.148Z,94.7
2019-04-28T06:17:55.882Z,94.32
2019-04-28T06:18:22.019Z,94.03
2019-04-28T06:19:14.301Z,94.03
2019-04-28T06:20:06.609Z,94.51
2019-04-28T06:20:32.781Z,93.84
2019-04-28T06:21:25.059Z,94.22
2019-04-28T06:22:43.477Z,94.03
2019-04-28T06:23:35.755Z,94.41
2019-04-28T06:24:01.900Z,94.32
2019-04-28T06:24:54.228Z,94.51
2019-04-28T06:25:46.541Z,93.7
2019-04-28T06:26:12.694Z,93.79
2019-04-28T06:27:04.974Z,92.93
2019-04-28T06:28:23.421Z,91.6
2019-04-28T06:29:15.696Z,91.5
2019-04-28T06:29:41.831Z,91.79
2019-04-28T06:30:34.130Z,91.69
2019-04-28T06:31:26.439Z,91.79
2019-04-28T06:31:52.576Z,91.79
2019-04-28T06:32:44.865Z,91.22
2019-04-28T06:33:12.982Z,91.5
2019-04-28T06:34:05.543Z,90.5
2019-04-28T06:35:23.983Z,89.89
2019-04-28T06:36:16.269Z,89.6
2019-04-28T06:36:42.402Z,90.74
2019-04-28T06:37:34.688Z,91.13
2019-04-28T06:38:53.116Z,90.26
2019-04-28T06:39:47.278Z,89.54
2019-04-28T06:40:12.554Z,88.84
2019-04-28T06:41:04.862Z,89.17
2019-04-28T06:42:23.285Z,88.98
2019-04-28T06:43:15.574Z,88.69
2019-04-28T06:44:34.031Z,88.84
2019-04-28T06:45:26.302Z,89.07
2019-04-28T06:45:52.435Z,89.17
2019-04-28T06:46:44.730Z,87.98
2019-04-28T06:48:03.977Z,88.31
2019-04-28T06:48:56.251Z,88.26
2019-04-28T06:49:22.382Z,88.93
2019-04-28T06:50:14.668Z,89.69
2019-04-28T06:51:33.121Z,90.08
2019-04-28T06:52:25.407Z,89.5
2019-04-28T06:53:44.841Z,90.17
2019-04-28T06:55:03.266Z,89.03
2019-04-28T06:55:55.558Z,89.22
2019-04-28T06:57:13.990Z,88.69
2019-04-28T06:58:06.312Z,87.6
2019-04-28T06:58:32.472Z,88.36
2019-04-28T06:59:24.779Z,88.84
2019-04-28T07:00:43.210Z,87.74
2019-04-28T07:01:35.506Z,86.21
2019-04-28T07:02:53.918Z,86.78
2019-04-28T07:04:13.361Z,86.69
2019-04-28T07:05:06.647Z,85.73
2019-04-28T07:05:32.780Z,85.93
2019-04-28T07:06:25.121Z,86.11
2019-04-28T07:07:43.559Z,85.68
2019-04-28T07:08:35.845Z,84.82
2019-04-28T07:09:01.981Z,84.25
2019-04-28T07:09:54.305Z,84.25
2019-04-28T07:10:46.586Z,84.16
2019-04-28T07:11:12.724Z,83.39
2019-04-28T07:12:05.011Z,82.82
2019-04-28T07:13:23.436Z,82.34
2019-04-28T07:14:15.722Z,82.34
2019-04-28T07:14:41.858Z,82.63
2019-04-28T07:15:34.163Z,83.11
2019-04-28T07:16:26.486Z,82.09
2019-04-28T07:16:52.620Z,82.82
2019-04-28T07:17:44.945Z,82.95
2019-04-28T07:19:03.381Z,80.85
2019-04-28T07:19:55.670Z,80.76
2019-04-28T07:20:21.833Z,81.14
2019-04-28T07:21:14.114Z,81.48
2019-04-28T07:22:06.410Z,82.34
2019-04-28T07:22:32.577Z,82.67
2019-04-28T07:23:24.882Z,82.72
2019-04-28T07:24:44.907Z,82.24
2019-04-28T07:25:36.780Z,82.38
2019-04-28T07:26:02.936Z,81.62
2019-04-28T07:26:55.252Z,81.81
2019-04-28T07:28:13.689Z,81.67
2019-04-28T07:29:06.009Z,82.06
2019-04-28T07:29:32.150Z,82.63
2019-04-28T07:30:24.435Z,82.06
2019-04-28T07:31:16.762Z,82.4
2019-04-28T07:31:42.899Z,82.68
2019-04-28T07:32:35.193Z,84.64
2019-04-28T07:33:53.704Z,85.35
2019-04-28T07:34:46.064Z,84.63
2019-04-28T07:35:12.200Z,83.96
2019-04-28T07:36:04.482Z,82.82
2019-04-28T07:36:56.779Z,83.83
2019-04-28T07:37:22.919Z,84.78
2019-04-28T07:38:15.456Z,84.44
2019-04-28T07:39:34.049Z,82.57
2019-04-28T07:40:53.743Z,80.76
2019-04-28T07:41:46.075Z,80.41
2019-04-28T07:42:12.212Z,79.36
2019-04-28T07:43:04.518Z,78.07
2019-04-28T07:43:56.807Z,77.84
2019-04-28T07:44:22.962Z,77.94
2019-04-28T07:45:15.251Z,77.08
2019-04-28T07:46:33.714Z,77.74
2019-04-28T07:47:26.010Z,78.31
2019-04-28T07:47:52.160Z,78.03
2019-04-28T07:48:44.440Z,78.03
2019-04-28T07:50:03.382Z,77.55
2019-04-28T07:50:55.696Z,77.08
2019-04-28T07:51:21.824Z,76.4
2019-04-28T07:52:14.110Z,77.32
2019-04-28T07:53:06.399Z,77.26
2019-04-28T07:53:32.615Z,77.42
2019-04-28T07:54:25.825Z,77.42
2019-04-28T07:54:52.004Z,77.8
2019-04-28T07:55:44.302Z,77.8
2019-04-28T07:56:36.591Z,77.13
2019-04-28T07:57:02.731Z,77.13
2019-04-28T07:57:55.536Z,76.79
2019-04-28T07:59:13.980Z,76.37
2019-04-28T08:00:06.275Z,77.23
2019-04-28T08:00:32.414Z,77.03
2019-04-28T08:01:24.740Z,77.86
2019-04-28T08:02:43.221Z,77.23
2019-04-28T08:03:48.391Z,76.65
2019-04-28T08:04:03.642Z,76.94
2019-04-28T08:04:55.929Z,77.57
2019-04-28T08:05:22.064Z,77.13
2019-04-28T08:06:14.354Z,75.83
2019-04-28T08:07:33.791Z,74.21
2019-04-28T08:08:26.091Z,73.48
2019-04-28T08:08:52.231Z,72.43
2019-04-28T08:09:44.515Z,72.24
2019-04-28T08:10:36.839Z,72.3
2019-04-28T08:11:02.979Z,72.39
2019-04-28T08:11:55.268Z,72.58
2019-04-28T08:13:13.683Z,72.68
2019-04-28T08:14:05.976Z,73.07
2019-04-28T08:14:32.126Z,73
2019-04-28T08:15:24.410Z,72.33
2019-04-28T08:16:16.719Z,72.97
2019-04-28T08:16:42.857Z,73.35
2019-04-28T08:17:35.193Z,73.73
2019-04-28T08:18:53.652Z,72.91
2019-04-28T08:19:45.932Z,72.62
2019-04-28T08:20:12.104Z,71.76
2019-04-28T08:21:04.383Z,72.05
2019-04-28T08:21:56.668Z,72.05
2019-04-28T08:22:22.795Z,72.05
2019-04-28T08:23:15.105Z,72.78
2019-04-28T08:23:47.113Z,74.3
2019-04-28T08:24:35.525Z,74.3
2019-04-28T08:25:53.946Z,74.88
2019-04-28T08:26:46.837Z,74.59
2019-04-28T08:27:12.966Z,75.07
2019-04-28T08:28:05.265Z,74.49
2019-04-28T08:29:23.692Z,73.29
2019-04-28T08:30:43.112Z,73.07
2019-04-28T08:31:35.435Z,72.62
2019-04-28T08:32:53.878Z,73.44
2019-04-28T08:33:46.198Z,73.39
2019-04-28T08:34:13.566Z,72.33
2019-04-28T08:35:05.854Z,71.76
2019-04-28T08:35:32.006Z,72.08
2019-04-28T08:36:24.333Z,71.03
2019-04-28T08:37:16.679Z,70.59
2019-04-28T08:37:42.819Z,70.4
2019-04-28T08:38:35.545Z,69.92
2019-04-28T08:39:55.207Z,68.77
2019-04-28T08:41:13.633Z,68.55
2019-04-28T08:42:05.919Z,69.6
2019-04-28T08:42:32.062Z,69.15
2019-04-28T08:43:24.358Z,68.77
2019-04-28T08:44:16.645Z,69.06
2019-04-28T08:44:42.781Z,68.96
2019-04-28T08:45:35.077Z,68.8
2019-04-28T08:46:53.499Z,67.02
2019-04-28T08:47:45.821Z,66.45
2019-04-28T08:48:12.950Z,65.3
2019-04-28T08:49:05.269Z,65.11
2019-04-28T08:50:23.713Z,65.65
2019-04-28T08:51:16.020Z,68.1
2019-04-28T08:51:42.158Z,68.55
2019-04-28T08:52:34.445Z,70.07
2019-04-28T08:53:26.743Z,71.67
2019-04-28T08:53:52.879Z,71.76
2019-04-28T08:54:45.175Z,72.81
2019-04-28T08:56:03.612Z,72.43
2019-04-28T08:56:55.901Z,73.48
2019-04-28T08:57:22.040Z,73
2019-04-28T08:58:14.366Z,74.02
2019-04-28T08:59:06.700Z,74.11
2019-04-28T08:59:32.826Z,75.26
2019-04-28T09:00:25.116Z,75.93
2019-04-28T09:01:43.574Z,80.09
2019-04-28T09:02:35.876Z,80.28
2019-04-28T09:03:02.015Z,80.38
2019-04-28T09:03:54.323Z,80.76
2019-04-28T09:05:13.417Z,82.82
2019-04-28T09:06:05.708Z,85.87
2019-04-28T09:06:31.847Z,87.02
2019-04-28T09:07:24.163Z,87.68
2019-04-28T09:08:16.451Z,89.31
2019-04-28T09:08:42.576Z,90.03
2019-04-28T09:09:34.991Z,93.17
2019-04-28T09:10:53.739Z,97.61
2019-04-28T09:11:46.025Z,99.99
2019-04-28T09:12:12.182Z,99.99
2019-04-28T09:13:04.507Z,99.99
2019-04-28T09:13:56.803Z,99.99
2019-04-28T09:14:22.937Z,99.99
2019-04-28T09:15:15.226Z,99.99
2019-04-28T09:16:33.641Z,99.99
2019-04-28T09:17:25.927Z,99.99
2019-04-28T09:17:52.097Z,99.99
2019-04-28T09:18:44.404Z,99.99
2019-04-28T09:19:36.686Z,99.99
2019-04-28T09:20:02.841Z,99.99
2019-04-28T09:20:55.147Z,99.99
2019-04-28T09:22:13.592Z,99.99
2019-04-28T09:23:05.877Z,99.99
2019-04-28T09:23:32.022Z,99.99
2019-04-28T09:24:24.309Z,99.99
2019-04-28T09:25:16.599Z,99.99
2019-04-28T09:25:42.737Z,99.99
2019-04-28T09:26:36.978Z,99.99
2019-04-28T09:27:02.170Z,99.99
2019-04-28T09:27:54.449Z,99.99
2019-04-28T09:28:46.734Z,99.99
2019-04-28T09:29:12.904Z,99.99
2019-04-28T09:30:05.191Z,99.99
2019-04-28T09:31:23.608Z,99.99
2019-04-28T09:32:15.926Z,99.99
2019-04-28T09:32:42.083Z,99.99
2019-04-28T09:33:34.385Z,99.99
2019-04-28T09:34:28.267Z,99.99
2019-04-28T09:34:54.183Z,99.99
2019-04-28T09:35:46.469Z,99.99
2019-04-28T09:36:12.593Z,99.99
2019-04-28T09:37:04.985Z,99.99
2019-04-28T09:38:23.402Z,99.99
2019-04-28T09:39:15.674Z,99.99
2019-04-28T09:39:41.947Z,99.99
2019-04-28T09:40:34.233Z,99.99
2019-04-28T09:41:26.518Z,99.99
2019-04-28T09:41:52.680Z,99.99
2019-04-28T09:42:44.969Z,99.99
2019-04-28T09:44:03.390Z,99.99
2019-04-28T09:44:55.674Z,99.99
2019-04-28T09:45:21.813Z,99.99
2019-04-28T09:46:14.095Z,99.99
2019-04-28T09:47:06.388Z,99.99
2019-04-28T09:47:32.528Z,99.99
2019-04-28T09:48:24.815Z,99.08
2019-04-28T09:49:43.238Z,94.7
2019-04-28T09:50:35.554Z,87.92
2019-04-28T09:51:54.002Z,89.59
2019-04-28T09:52:48.718Z,91.59
2019-04-28T09:53:13.406Z,91.78
2019-04-28T09:54:05.719Z,88.34
2019-04-28T09:54:31.895Z,87.01
2019-04-28T09:55:24.197Z,84.72
2019-04-28T09:56:16.486Z,86.43
2019-04-28T09:56:55.650Z,86.63
2019-04-28T09:57:36.907Z,86.86
2019-04-28T09:58:04.021Z,86.57
2019-04-28T09:58:56.312Z,86.47
2019-04-28T09:59:22.454Z,85.52
2019-04-28T10:00:14.766Z,83.99
2019-04-28T10:01:33.222Z,82.89
2019-04-28T10:02:25.509Z,81.36
2019-04-28T10:03:44.948Z,81.93
2019-04-28T10:05:03.469Z,82.12
2019-04-28T10:05:55.817Z,80.35
2019-04-28T10:06:21.955Z,78.91
2019-04-28T10:07:14.238Z,76.33
2019-04-28T10:08:06.524Z,75.66
2019-04-28T10:08:32.667Z,75.66
2019-04-28T10:09:25.007Z,76.33
2019-04-28T10:10:43.434Z,76.56
2019-04-28T10:11:36.725Z,76.08
2019-04-28T10:12:02.864Z,76.18
2019-04-28T10:13:23.263Z,75.93
2019-04-28T10:14:16.568Z,74.87
2019-04-28T10:14:42.707Z,74.49
2019-04-28T10:15:34.996Z,73.63
2019-04-28T10:16:53.460Z,74.49
2019-04-28T10:17:45.758Z,73.34
2019-04-28T10:18:11.888Z,72.86
2019-04-28T10:19:04.182Z,71.71
2019-04-28T10:19:56.469Z,71.37
2019-04-28T10:20:22.600Z,71.27
2019-04-28T10:21:14.923Z,70.03
2019-04-28T10:22:33.441Z,70.12
2019-04-28T10:23:25.734Z,70.18
2019-04-28T10:23:51.868Z,70.5
2019-04-28T10:24:44.151Z,70.6
2019-04-28T10:25:36.440Z,70.31
2019-04-28T10:26:02.573Z,70.31
2019-04-28T10:26:54.888Z,69.17
2019-04-28T10:28:13.310Z,68.78
2019-04-28T10:29:05.606Z,68.55
2019-04-28T10:29:32.985Z,69.13
2019-04-28T10:30:25.030Z,70.21
2019-04-28T10:31:44.441Z,68.01
2019-04-28T10:32:36.751Z,66.67
2019-04-28T10:33:02.885Z,66.19
2019-04-28T10:33:55.165Z,67.05
2019-04-28T10:35:15.566Z,68.3
2019-04-28T10:35:41.731Z,68.68
2019-04-28T10:36:34.030Z,68.01
2019-04-28T10:37:26.327Z,69.07
2019-04-28T10:37:52.462Z,68.4